Nearby METAR Reports

 

KSFO - San Francisco, California, USA
Distance from station: NNW 8km
Updated: Fri, 20-Jul-2018 8:56am PDT
Mostly cloudy
Mostly cloudy
 Wind from NNE
Wind: NNE 7 mph , 11 km/h
Temperature: 64°F , 18°C
Dew Point: 57°F , 14°C
Humidity: 78%
Barometer: 29.92 inHg , 1013.2 hPa
Clouds: Mostly cloudy
Visibility: 10 miles , 16 km
Cloud details: Mostly cloudy 800 ft
2018/07/20 15:56 KSFO 201556Z 03006KT 10SM BKN008 18/14 A2992 RMK AO2 SLP132 T01780144
KSQL - San Carlos Airpo, California, USA
Distance from station: ESE 8km
Updated: Fri, 20-Jul-2018 8:47am PDT
Partly cloudy
Partly cloudy
 Wind from calm
Wind: Calm
Temperature: 64°F , 18°C
Dew Point: 59°F , 15°C
Humidity: 83%
Barometer: 29.93 inHg , 1013.5 hPa
Clouds: Partly cloudy
Visibility: 10 miles , 16 km
Cloud details: Partly cloudy 900 ft
Partly cloudy 13000 ft
Partly cloudy 20000 ft
2018/07/20 15:47 KSQL 201547Z 00000KT 10SM SCT009 SCT130 SCT200 18/15 A2993
 
KHAF - Half Moon Bay, California, USA
Distance from station: WSW 15km
Updated: Fri, 20-Jul-2018 9:20am PDT
Fog, Overcast
Fog, Overcast
 Wind from S
Wind: S 12 mph , 19 km/h
Temperature: 57°F , 14°C
Dew Point: 57°F , 14°C
Humidity: 100%
Barometer: 29.96 inHg , 1014.6 hPa
Summary: Fog
Clouds: Overcast
Visibility: 1/4 mile , 0.4 km
Cloud details: Overcast 300 ft
2018/07/20 16:20 KHAF 201620Z AUTO 17010KT 1/4SM FG OVC003 14/14 A2996 RMK AO2
KOAK - Oakland, California, USA
Distance from station: NNE 21km
Updated: Fri, 20-Jul-2018 8:53am PDT
Mist, Partly cloudy
Mist, Partly cloudy
 Wind from NNW
Wind: NNW 5 mph , 7 km/h
Temperature: 63°F , 17°C
Dew Point: 57°F , 14°C
Humidity: 83%
Barometer: 29.93 inHg , 1013.5 hPa
Summary: Mist
Clouds: Partly cloudy
Visibility: 6 miles , 10 km
Cloud details: Partly cloudy 700 ft
Partly cloudy 20000 ft
2018/07/20 15:53 KOAK 201553Z 33004KT 6SM BR SCT007 SCT200 17/14 A2993 RMK AO2 SLP136 T01670144
 
KPAO - Palo Alto, California, USA
Distance from station: ESE 21km
Updated: Fri, 20-Jul-2018 8:47am PDT
Mist, Partly cloudy
Mist, Partly cloudy
 Wind from varies
Wind: varies 5 mph , 7 km/h
Temperature: 64°F , 18°C
Dew Point: 61°F , 16°C
Humidity: 88%
Barometer: 29.93 inHg , 1013.5 hPa
Summary: Mist
Clouds: Partly cloudy
Visibility: 6 miles , 10 km
Cloud details: Partly cloudy 1100 ft
2018/07/20 15:47 KPAO 201547Z VRB04KT 6SM BR SCT011 18/16 A2993
KHWD - Hayward, California, USA
Distance from station: NE 23km
Updated: Fri, 20-Jul-2018 8:54am PDT
Partly cloudy
Partly cloudy
 Wind from varies
Wind: varies 3 mph , 6 km/h
Temperature: 64°F , 18°C
Dew Point: 57°F , 14°C
Humidity: 78%
Barometer: 29.92 inHg , 1013.2 hPa
Clouds: Partly cloudy
Visibility: 9 miles , 14 km
Cloud details: Partly cloudy 700 ft
2018/07/20 15:54 KHWD 201554Z VRB03KT 9SM SCT007 18/14 A2992 RMK AO2 SLP141 T01780139
 
KNUQ - Moffett Nas/Mtn, California, USA
Distance from station: ESE 30km
Updated: Fri, 20-Jul-2018 8:56am PDT
Clear
Clear
 Wind from NNE
Wind: NNE 3 mph , 6 km/h
Temperature: 63°F , 17°C
Dew Point: 59°F , 15°C
Humidity: 88%
Barometer: 29.92 inHg , 1013.2 hPa
Clouds: Clear
Visibility: 9 miles , 14 km
2018/07/20 15:56 KNUQ 201556Z 02003KT 9SM CLR 17/15 A2992 RMK AO2 SLP135 T01720150
KSJC - San Jose, California, USA
Distance from station: ESE 42km
Updated: Fri, 20-Jul-2018 8:53am PDT
Few Clouds
Few Clouds
 Wind from W
Wind: W 5 mph , 7 km/h
Temperature: 70°F , 21°C
Dew Point: 57°F , 14°C
Humidity: 64%
Barometer: 29.91 inHg , 1012.9 hPa
Clouds: Few Clouds
Visibility: 10 miles , 16 km
Cloud details: Few Clouds 7000 ft
Few Clouds 11000 ft
2018/07/20 15:53 KSJC 201553Z 27004KT 10SM FEW070 FEW110 21/14 A2991 RMK AO2 SLP127 T02060144
 
KLVK - Livermore, California, USA
Distance from station: ENE 49km
Updated: Fri, 20-Jul-2018 8:53am PDT
Clear
Clear
 Wind from calm
Wind: Calm
Temperature: 72°F , 22°C
Dew Point: 55°F , 13°C
Humidity: 57%
Barometer: 29.89 inHg , 1012.2 hPa
Clouds: Clear
Visibility: 10 miles , 16 km
2018/07/20 15:53 KLVK 201553Z 00000KT 10SM CLR 22/13 A2989 RMK AO2 SLP119 T02170128
KRHV - San Jose/Reid, California, USA
Distance from station: ESE 53km
Updated: Fri, 20-Jul-2018 6:54am PDT
NOT Current
Partly cloudy
Partly cloudy
 Wind from WSW
Wind: WSW 5 mph , 7 km/h
Temperature: 70°F , 21°C
Dew Point: 59°F , 15°C
Humidity: 69%
Barometer: 29.89 inHg , 1012.2 hPa
Clouds: Partly cloudy
Visibility: 10 miles , 16 km
Cloud details: Partly cloudy 6000 ft
2018/07/20 13:54 KRHV 201354Z 25004KT 10SM SCT060 21/15 A2989
 
KCCR - Concord, California, USA
Distance from station: NNE 56km
Updated: Fri, 20-Jul-2018 8:53am PDT
Clear
Clear
 Wind from W
Wind: W 12 mph , 19 km/h
Temperature: 68°F , 20°C
Dew Point: 55°F , 13°C
Humidity: 64%
Barometer: 29.90 inHg , 1012.5 hPa
Clouds: Clear
Visibility: 10 miles , 16 km
2018/07/20 15:53 KCCR 201553Z 28010KT 10SM CLR 20/13 A2990 RMK AO2 SLP111 T02000133
KDVO - Novato/Gnoss Fld, California, USA
Distance from station: NNW 70km
Updated: Fri, 20-Jul-2018 9:15am PDT
Clear
Clear
 Wind from N
Wind: N 7 mph , 11 km/h
Temperature: 63°F , 17°C
Dew Point: 55°F , 13°C
Humidity: 77%
Barometer: 29.93 inHg , 1013.5 hPa
Clouds: Clear
Visibility: 10 miles , 16 km
2018/07/20 16:15 KDVO 201615Z AUTO 35006KT 10SM CLR 17/13 A2993 RMK AO2
 
KAPC - Napa, California, USA
Distance from station: N 73km
Updated: Fri, 20-Jul-2018 8:54am PDT
Partly cloudy
Partly cloudy
 Wind from SSW
Wind: SSW 5 mph , 7 km/h
Temperature: 61°F , 16°C
Dew Point: 54°F , 12°C
Humidity: 77%
Barometer: 29.93 inHg , 1013.5 hPa
Clouds: Partly cloudy
Visibility: 10 miles , 16 km
Cloud details: Partly cloudy 700 ft
2018/07/20 15:54 KAPC 201554Z 20004KT 10SM SCT007 16/12 A2993 RMK AO2 SLP127 T01610122